Time;durP1;ratioP1;P1;durP2;ratioP2;P2;SDS_P1;SDS_P2;PMS_P1;PMS_P2;Temp;Humidity;BMP_temperature;BMP_pressure;BME280_temperature;BME280_humidity;BME280_pressure;Samples;Min_cycle;Max_cycle;Signal;HPM_P1;HPM_P2
2021/04/05 00:00:07;;;;;;;7.00;3.38;;;;;;;3.48;53.04;92584.47;2060573;69;20151;-68
2021/04/05 00:02:32;;;;;;;6.47;3.17;;;;;;;3.43;53.18;92584.66;2060480;69;20137;-70
2021/04/05 00:04:58;;;;;;;7.90;3.15;;;;;;;3.62;53.54;92581.34;2057489;69;20640;-68
2021/04/05 00:07:23;;;;;;;6.75;3.38;;;;;;;3.54;53.99;92592.56;2060984;69;20149;-69
2021/04/05 00:09:49;;;;;;;4.72;3.03;;;;;;;3.59;54.24;92588.81;2060628;69;20161;-67
2021/04/05 00:12:15;;;;;;;6.10;3.10;;;;;;;3.47;53.09;92591.31;2060985;69;20517;-75
2021/04/05 00:14:42;;;;;;;5.15;2.90;;;;;;;3.34;53.29;92586.00;2061007;69;20161;-74
2021/04/05 00:17:08;;;;;;;6.07;2.90;;;;;;;3.46;54.02;92575.91;2061413;69;20152;-70
2021/04/05 00:19:37;;;;;;;5.68;2.95;;;;;;;3.50;53.19;92569.97;2061231;69;20141;-70
2021/04/05 00:22:03;;;;;;;7.35;3.13;;;;;;;3.12;54.57;92578.56;2061244;69;20323;-70
2021/04/05 00:24:28;;;;;;;10.43;4.15;;;;;;;2.84;55.91;92565.72;2061286;69;20157;-76
2021/04/05 00:26:54;;;;;;;8.65;3.55;;;;;;;3.18;54.43;92562.41;2060913;69;20157;-71
2021/04/05 00:29:19;;;;;;;6.80;3.60;;;;;;;3.25;54.91;92562.34;2057856;69;20319;-71
2021/04/05 00:31:45;;;;;;;5.65;3.25;;;;;;;3.14;54.98;92562.78;2061247;69;20183;-72
2021/04/05 00:34:11;;;;;;;7.25;3.92;;;;;;;3.11;53.75;92561.13;2058036;69;20181;-73
2021/04/05 00:36:36;;;;;;;6.43;3.00;;;;;;;3.29;53.94;92553.59;2061186;69;20251;-69
2021/04/05 00:39:05;;;;;;;5.10;2.88;;;;;;;3.47;52.84;92551.59;2061055;69;20161;-72
2021/04/05 00:41:31;;;;;;;6.07;3.03;;;;;;;3.31;53.51;92553.78;2061207;69;20164;-74
2021/04/05 00:43:57;;;;;;;5.38;2.90;;;;;;;3.13;54.92;92547.41;2060873;69;20268;-71
2021/04/05 00:46:24;;;;;;;8.25;2.95;;;;;;;3.20;53.94;92534.75;2061186;69;20176;-75
2021/04/05 00:48:51;;;;;;;6.70;3.10;;;;;;;3.34;54.08;92544.28;2061357;69;20125;-77
2021/04/05 00:51:23;;;;;;;6.43;3.58;;;;;;;3.50;53.25;92533.78;2064834;69;20153;-74
2021/04/05 00:53:50;;;;;;;7.03;3.50;;;;;;;3.22;54.07;92529.34;2064807;69;20137;-77
2021/04/05 00:56:22;;;;;;;8.27;3.60;;;;;;;3.04;54.17;92528.56;2065072;69;20255;-75
2021/04/05 00:58:49;;;;;;;5.40;3.20;;;;;;;3.25;54.42;92520.63;2064797;69;20593;-76
2021/04/05 01:01:19;;;;;;;5.82;3.40;;;;;;;2.93;54.84;92507.50;2064610;69;20177;-75
2021/04/05 01:03:45;;;;;;;7.63;3.15;;;;;;;2.91;54.28;92507.31;2064613;69;20589;-70
2021/04/05 01:06:33;;;;;;;4.57;3.25;;;;;;;3.15;54.30;92505.84;2064825;69;20149;-74
2021/04/05 01:09:01;;;;;;;6.50;3.20;;;;;;;2.81;56.12;92503.66;2064932;69;20477;-75
2021/04/05 01:11:29;;;;;;;6.68;3.22;;;;;;;2.89;55.59;92511.97;2064584;69;20172;-76
2021/04/05 01:13:56;;;;;;;6.25;3.28;;;;;;;2.89;55.27;92503.63;2064575;69;20164;-68
2021/04/05 01:16:25;;;;;;;6.10;3.40;;;;;;;3.01;54.04;92499.09;2064935;69;20137;-68
2021/04/05 01:18:51;;;;;;;5.85;3.33;;;;;;;3.16;53.68;92501.00;2064911;69;20129;-76
2021/04/05 01:21:17;;;;;;;4.93;2.80;;;;;;;3.19;53.53;92506.19;2061581;69;20187;-75
2021/04/05 01:23:42;;;;;;;6.90;3.33;;;;;;;2.96;55.14;92502.81;2064633;69;20260;-67
2021/04/05 01:26:09;;;;;;;6.13;2.60;;;;;;;2.99;54.87;92507.25;2064900;69;20612;-67
2021/04/05 01:28:35;;;;;;;8.13;2.97;;;;;;;2.90;54.07;92505.09;2064737;69;20597;-70
2021/04/05 01:31:01;;;;;;;5.20;2.80;;;;;;;2.88;55.56;92491.00;2064810;69;20165;-75
2021/04/05 01:33:31;;;;;;;4.53;2.80;;;;;;;3.01;54.25;92488.69;2064698;69;20137;-76
2021/04/05 01:36:15;;;;;;;6.88;2.75;;;;;;;2.72;56.03;92482.03;2064880;69;20152;-75
2021/04/05 01:38:52;;;;;;;4.72;2.60;;;;;;;3.02;55.96;92487.41;2064635;69;20160;-72
2021/04/05 01:41:36;;;;;;;6.00;2.65;;;;;;;2.90;54.33;92475.25;2064658;69;20155;-75
2021/04/05 01:44:02;;;;;;;4.78;2.60;;;;;;;2.91;54.10;92471.16;2061291;69;20173;-75
2021/04/05 01:46:29;;;;;;;4.95;2.60;;;;;;;2.74;54.96;92468.31;2064679;69;20145;-75
2021/04/05 01:49:01;;;;;;;6.53;2.55;;;;;;;2.83;55.01;92458.63;2064636;69;20172;-70
2021/04/05 01:51:27;;;;;;;7.55;2.40;;;;;;;2.68;55.78;92449.06;2061327;69;20145;-69
2021/04/05 01:53:55;;;;;;;4.50;2.58;;;;;;;2.75;54.65;92455.91;2065142;69;20152;-66
2021/04/05 01:56:22;;;;;;;6.05;2.60;;;;;;;2.82;54.82;92449.53;2064496;69;20160;-66
2021/04/05 01:58:51;;;;;;;4.97;2.80;;;;;;;2.56;55.47;92450.81;2064622;69;20668;-74
2021/04/05 02:01:25;;;;;;;4.25;2.60;;;;;;;1.95;58.75;92443.53;2064452;69;20157;-76
2021/04/05 02:03:52;;;;;;;5.47;2.42;;;;;;;2.16;58.41;92443.25;2064521;69;20180;-75
2021/04/05 02:06:27;;;;;;;5.32;2.72;;;;;;;2.36;57.18;92443.53;2064385;69;20149;-75
2021/04/05 02:08:54;;;;;;;3.63;2.42;;;;;;;2.32;56.35;92430.03;2061040;69;20160;-75
2021/04/05 02:11:25;;;;;;;3.72;2.67;;;;;;;2.39;56.70;92440.38;2065221;69;20240;-70
2021/04/05 02:13:55;;;;;;;7.47;2.70;;;;;;;2.40;55.82;92436.28;2065083;69;20160;-71
2021/04/05 02:16:22;;;;;;;7.18;2.55;;;;;;;2.48;56.91;92422.34;2065132;69;20149;-75
2021/04/05 02:18:49;;;;;;;3.85;2.28;;;;;;;2.57;55.67;92420.97;2065273;69;20246;-73
2021/04/05 02:21:20;;;;;;;4.57;2.25;;;;;;;2.70;55.30;92407.56;2065096;69;20153;-75
2021/04/05 02:23:47;;;;;;;6.00;2.53;;;;;;;2.44;55.18;92410.88;2065221;69;20157;-73
2021/04/05 02:26:17;;;;;;;4.68;2.63;;;;;;;2.72;55.13;92396.59;2059084;69;20160;-70
2021/04/05 02:28:45;;;;;;;4.65;2.50;;;;;;;2.74;54.99;92391.19;2065161;69;20145;-71
2021/04/05 02:31:15;;;;;;;4.75;2.25;;;;;;;2.68;54.19;92398.31;2065137;69;20152;-68
2021/04/05 02:33:44;;;;;;;5.28;2.80;;;;;;;2.45;56.16;92401.97;2065195;69;20161;-74
2021/04/05 02:36:12;;;;;;;5.85;3.10;;;;;;;2.19;57.42;92403.22;2065147;69;20216;-70
2021/04/05 02:38:40;;;;;;;6.93;3.20;;;;;;;2.24;56.58;92407.09;2065093;69;20647;-69
2021/04/05 02:41:11;;;;;;;7.30;2.90;;;;;;;2.48;56.60;92408.47;2065097;69;20149;-71
2021/04/05 02:43:38;;;;;;;4.75;3.28;;;;;;;2.38;56.56;92413.13;2061706;69;20203;-68
2021/04/05 02:46:05;;;;;;;6.50;2.90;;;;;;;2.44;56.06;92408.09;2065106;69;20171;-71
2021/04/05 02:48:33;;;;;;;3.88;2.70;;;;;;;2.38;56.92;92415.91;2065112;69;20148;-72
2021/04/05 02:51:02;;;;;;;7.32;3.08;;;;;;;2.39;56.15;92409.06;2065087;69;20236;-71
2021/04/05 02:53:30;;;;;;;6.45;3.00;;;;;;;2.06;57.82;92405.53;2065246;69;20172;-73
2021/04/05 02:55:59;;;;;;;4.75;3.03;;;;;;;2.27;57.53;92405.97;2065232;69;20156;-73
2021/04/05 02:58:25;;;;;;;4.38;2.63;;;;;;;2.02;56.56;92403.16;2065274;69;20163;-75
2021/04/05 03:00:51;;;;;;;5.00;3.17;;;;;;;2.36;56.88;92394.25;2064930;69;20597;-72
2021/04/05 03:03:18;;;;;;;6.22;3.30;;;;;;;2.21;57.71;92386.75;2065043;69;20200;-68
2021/04/05 03:05:45;;;;;;;8.90;3.20;;;;;;;2.46;55.79;92391.59;2065044;69;20266;-71
2021/04/05 03:08:10;;;;;;;5.70;2.78;;;;;;;2.31;55.09;92383.38;2061727;69;20136;-71
2021/04/05 03:10:36;;;;;;;5.10;2.13;;;;;;;2.41;54.65;92378.66;2065036;69;20161;-69
2021/04/05 03:13:03;;;;;;;4.97;2.83;;;;;;;2.24;56.03;92368.22;2065062;69;20561;-71
2021/04/05 03:15:30;;;;;;;5.88;2.70;;;;;;;2.08;55.86;92378.69;2061640;69;20678;-72
2021/04/05 03:18:01;;;;;;;5.03;2.78;;;;;;;2.07;56.05;92368.16;2065030;69;20149;-69
2021/04/05 03:20:33;;;;;;;4.90;2.88;;;;;;;2.20;57.44;92381.75;2064980;69;20161;-72
2021/04/05 03:23:01;;;;;;;7.22;2.88;;;;;;;2.32;55.71;92380.03;2065057;69;20149;-69
2021/04/05 03:25:27;;;;;;;4.60;2.67;;;;;;;2.21;55.33;92367.31;2064980;69;20625;-69
2021/04/05 03:27:52;;;;;;;6.70;2.70;;;;;;;2.16;55.88;92367.53;2065001;69;20145;-71
2021/04/05 03:30:24;;;;;;;4.00;2.30;;;;;;;2.24;55.28;92362.66;2064892;69;20141;-75
2021/04/05 03:32:58;;;;;;;4.25;2.45;;;;;;;2.32;55.27;92357.78;2064998;69;20206;-70
2021/04/05 03:35:31;;;;;;;6.28;2.75;;;;;;;1.99;56.29;92366.13;2061881;69;20140;-72
2021/04/05 03:37:57;;;;;;;;;;;;;;;1.93;55.83;92368.41;2065091;69;20207;-71
2021/04/05 03:40:24;;;;;;;10.35;3.28;;;;;;;1.75;57.91;92366.81;2064973;69;20057;-73
2021/04/05 03:43:18;;;;;;;6.13;3.30;;;;;;;2.04;57.17;92359.63;2064874;69;20169;-72
2021/04/05 03:45:48;;;;;;;5.55;3.03;;;;;;;2.02;56.25;92362.25;2064318;69;20176;-70
2021/04/05 03:48:46;;;;;;;7.93;2.97;;;;;;;2.18;56.26;92359.38;2065004;69;20140;-70
2021/04/05 03:51:40;;;;;;;7.30;3.95;;;;;;;1.90;57.53;92349.34;2054230;70;20220;-73
2021/04/05 03:54:10;;;;;;;8.35;3.78;;;;;;;1.88;57.02;92338.06;2054182;70;20149;-69
2021/04/05 03:56:36;;;;;;;7.47;3.67;;;;;;;1.74;56.80;92332.03;2054313;69;20201;-72
2021/04/05 03:59:06;;;;;;;7.93;3.85;;;;;;;1.85;57.52;92339.22;2054055;70;20138;-71
2021/04/05 04:01:38;;;;;;;10.05;4.85;;;;;;;1.75;56.65;92339.06;2054203;70;20145;-72
2021/04/05 04:04:10;;;;;;;9.77;5.20;;;;;;;2.10;56.41;92342.00;2054175;70;20616;-68
2021/04/05 04:06:54;;;;;;;8.05;4.80;;;;;;;2.10;56.24;92336.47;2054304;70;20221;-73
2021/04/05 04:09:22;;;;;;;11.85;4.70;;;;;;;1.71;56.74;92331.13;2054268;70;20221;-68
2021/04/05 04:11:50;;;;;;;10.35;4.90;;;;;;;1.53;57.73;92335.09;2054121;70;20157;-68
2021/04/05 04:14:18;;;;;;;13.65;6.80;;;;;;;1.49;58.74;92326.41;2051322;70;20150;-70
2021/04/05 04:16:47;;;;;;;8.30;5.28;;;;;;;1.77;58.91;92317.75;2054140;70;20186;-69
2021/04/05 04:19:14;;;;;;;12.52;7.25;;;;;;;1.63;58.36;92308.22;2054139;70;20745;-68
2021/04/05 04:21:43;;;;;;;15.13;8.68;;;;;;;1.68;57.00;92312.09;2054088;70;20145;-69
2021/04/05 04:24:09;;;;;;;16.00;9.38;;;;;;;1.71;57.70;92297.09;2052617;70;20188;-70
2021/04/05 04:26:36;;;;;;;34.92;18.08;;;;;;;1.81;57.61;92297.22;2055186;69;20134;-72
2021/04/05 04:29:03;;;;;;;23.95;13.95;;;;;;;1.94;57.30;92296.97;2064741;69;20165;-72
2021/04/05 04:31:29;;;;;;;29.10;19.17;;;;;;;1.92;56.42;92294.72;2061671;69;20611;-74
2021/04/05 04:33:55;;;;;;;12.45;8.57;;;;;;;2.17;53.86;92286.44;2064838;69;20235;-72
2021/04/05 04:36:24;;;;;;;5.80;2.80;;;;;;;2.16;53.14;92279.41;2064803;69;20601;-70
2021/04/05 04:38:54;;;;;;;6.38;2.33;;;;;;;2.39;52.11;92278.50;2064809;69;20617;-74
2021/04/05 04:41:25;;;;;;;7.75;5.43;;;;;;;2.45;52.08;92279.72;2064932;69;20161;-68
2021/04/05 04:43:59;;;;;;;5.32;2.60;;;;;;;2.02;54.76;92286.53;2064696;69;20149;-68
2021/04/05 04:46:25;;;;;;;7.95;2.88;;;;;;;1.80;57.44;92282.59;2064818;69;20168;-69
2021/04/05 04:48:59;;;;;;;5.30;2.85;;;;;;;1.85;55.93;92292.03;2064790;69;20129;-70
2021/04/05 04:51:25;;;;;;;13.43;9.13;;;;;;;1.89;56.30;92279.22;2061520;69;20638;-69
2021/04/05 04:53:53;;;;;;;8.43;5.03;;;;;;;1.89;55.42;92279.22;2061434;69;20517;-69
2021/04/05 04:56:20;;;;;;;19.63;9.88;;;;;;;1.79;55.62;92278.38;2064765;69;20161;-74
2021/04/05 04:58:46;;;;;;;12.80;5.80;;;;;;;1.90;55.49;92271.63;2065118;69;20192;-72
2021/04/05 05:01:12;;;;;;;16.50;10.43;;;;;;;1.87;55.25;92264.41;2065256;69;20747;-69
2021/04/05 05:03:50;;;;;;;7.97;4.90;;;;;;;1.86;54.90;92268.50;2065297;69;20232;-71
2021/04/05 05:06:17;;;;;;;7.82;4.93;;;;;;;2.03;54.51;92269.31;2065314;69;20132;-73
2021/04/05 05:08:43;;;;;;;17.20;9.32;;;;;;;2.07;54.53;92268.94;2065284;69;20199;-75
2021/04/05 05:11:09;;;;;;;9.73;5.28;;;;;;;2.12;53.84;92270.00;2065297;69;20157;-75
2021/04/05 05:13:35;;;;;;;9.35;5.90;;;;;;;2.07;53.82;92276.53;2065307;69;20137;-73
2021/04/05 05:16:05;;;;;;;8.88;5.38;;;;;;;2.23;54.30;92269.53;2065388;69;20141;-75
2021/04/05 05:18:31;;;;;;;9.40;4.68;;;;;;;2.19;53.63;92256.03;2065222;69;20145;-68
2021/04/05 05:20:59;;;;;;;8.18;4.50;;;;;;;2.21;54.38;92266.59;2065255;69;20560;-73
2021/04/05 05:23:26;;;;;;;7.13;4.38;;;;;;;2.16;54.64;92271.06;2065286;69;20566;-71
2021/04/05 05:25:53;;;;;;;7.65;4.60;;;;;;;1.90;55.72;92254.97;2065263;69;20629;-72
2021/04/05 05:28:20;;;;;;;7.88;4.70;;;;;;;1.89;55.68;92261.84;2065485;69;20612;-69
2021/04/05 05:30:47;;;;;;;6.90;4.72;;;;;;;1.96;55.51;92261.75;2065218;69;20631;-71
2021/04/05 05:33:14;;;;;;;8.50;4.35;;;;;;;1.94;56.55;92263.66;2065311;69;20232;-73
2021/04/05 05:35:41;;;;;;;6.75;3.78;;;;;;;2.20;55.35;92265.09;2065255;69;20506;-73
2021/04/05 05:38:06;;;;;;;7.47;4.05;;;;;;;1.99;55.90;92263.41;2065245;69;20704;-75
2021/04/05 05:40:35;;;;;;;7.25;3.85;;;;;;;2.25;56.33;92253.06;2065273;69;20254;-70
2021/04/05 05:43:20;;;;;;;7.57;4.15;;;;;;;2.35;55.41;92261.50;2061891;69;20223;-73
2021/04/05 05:45:55;;;;;;;12.95;8.43;;;;;;;1.83;57.40;92253.69;2061741;69;20243;-71
2021/04/05 05:48:24;;;;;;;22.25;16.88;;;;;;;2.24;56.31;92248.78;2065194;69;20524;-74
2021/04/05 05:51:06;;;;;;;16.63;11.85;;;;;;;2.18;55.60;92242.72;2065270;69;20149;-70
2021/04/05 05:54:16;;;;;;;13.55;9.25;;;;;;;2.42;55.57;92233.63;2065352;69;20137;-74
2021/04/05 05:57:11;;;;;;;12.73;8.30;;;;;;;2.49;55.38;92232.09;2062293;69;20648;-70
2021/04/05 05:59:51;;;;;;;16.00;8.00;;;;;;;2.52;55.07;92223.38;2060416;69;20593;-68
2021/04/05 06:02:26;;;;;;;13.63;7.72;;;;;;;2.54;54.88;92228.34;2065324;69;20685;-72
2021/04/05 06:05:26;;;;;;;9.20;6.05;;;;;;;2.68;54.75;92218.38;2065152;69;20176;-75
2021/04/05 06:08:16;;;;;;;10.10;5.63;;;;;;;2.31;56.40;92231.31;2065316;69;20142;-73
2021/04/05 06:10:56;;;;;;;11.32;5.35;;;;;;;2.35;57.53;92228.88;2065145;69;20148;-69
2021/04/05 06:13:46;;;;;;;7.68;5.07;;;;;;;2.29;55.89;92220.03;2065160;69;20152;-70
2021/04/05 06:16:29;;;;;;;7.75;4.70;;;;;;;2.54;55.29;92211.66;2065164;69;20184;-74
2021/04/05 06:18:57;;;;;;;7.13;4.78;;;;;;;2.72;54.99;92221.50;2065149;69;20525;-69
2021/04/05 06:21:37;;;;;;;6.20;4.72;;;;;;;2.84;54.90;92221.00;2065149;69;20218;-74
2021/04/05 06:24:08;;;;;;;9.40;4.20;;;;;;;2.64;55.30;92206.94;2065160;69;20218;-75
2021/04/05 06:26:50;;;;;;;6.88;4.22;;;;;;;2.49;55.27;92205.03;2065137;69;20153;-71
2021/04/05 06:29:18;;;;;;;7.93;3.90;;;;;;;2.87;55.20;92211.50;2065100;69;20575;-73
2021/04/05 06:32:25;;;;;;;7.28;4.15;;;;;;;2.92;55.89;92205.69;2065050;69;20629;-74
2021/04/05 06:35:26;;;;;;;7.15;4.53;;;;;;;2.95;55.45;92201.06;2063602;69;20165;-76
2021/04/05 06:38:02;;;;;;;6.30;4.18;;;;;;;3.29;54.53;92192.63;2065161;69;20632;-75
2021/04/05 06:40:31;;;;;;;7.20;4.13;;;;;;;3.39;54.11;92198.28;2065202;69;20605;-73
2021/04/05 06:43:08;;;;;;;13.43;5.68;;;;;;;3.36;53.36;92196.66;2065051;69;20160;-74
2021/04/05 06:45:42;;;;;;;11.68;6.30;;;;;;;3.50;53.05;92202.59;2065023;69;20137;-73
2021/04/05 06:48:27;;;;;;;12.02;6.03;;;;;;;3.52;53.05;92189.56;2065082;69;20161;-75
2021/04/05 06:51:36;;;;;;;8.15;5.55;;;;;;;3.87;53.39;92186.66;2065128;69;20140;-72
2021/04/05 06:54:32;;;;;;;13.75;5.82;;;;;;;4.45;52.94;92172.91;2056321;69;20190;-74
2021/04/05 06:57:27;;;;;;;16.83;7.93;;;;;;;5.18;50.72;92162.78;2065195;69;20133;-77
2021/04/05 07:00:11;;;;;;;22.55;7.45;;;;;;;5.15;50.61;92158.41;2055963;69;20137;-77
2021/04/05 07:02:46;;;;;;;9.40;5.10;;;;;;;5.30;49.75;92160.88;2065176;69;20553;-71
2021/04/05 07:05:46;;;;;;;10.45;4.85;;;;;;;6.75;49.63;92162.38;2065162;69;20224;-73
2021/04/05 07:08:33;;;;;;;8.55;3.80;;;;;;;7.21;45.84;92161.84;2065101;69;20141;-75
2021/04/05 07:11:12;;;;;;;6.28;3.40;;;;;;;7.41;45.04;92151.22;2064965;69;20282;-73
2021/04/05 07:13:52;;;;;;;7.82;3.80;;;;;;;7.21;43.62;92139.47;2064926;69;20164;-71
2021/04/05 07:16:59;;;;;;;4.20;2.42;;;;;;;8.18;39.58;92130.03;2065027;69;20160;-74
2021/04/05 07:19:43;;;;;;;5.35;3.13;;;;;;;7.71;38.50;92115.25;2065180;69;20153;-72
2021/04/05 07:22:23;;;;;;;4.85;3.08;;;;;;;8.85;36.90;92114.34;2064824;69;20144;-74
2021/04/05 07:25:03;;;;;;;6.57;3.72;;;;;;;8.91;36.90;92109.06;2064993;69;20149;-74
2021/04/05 07:27:59;;;;;;;8.25;4.20;;;;;;;9.78;36.61;92112.47;2065010;69;20193;-69
2021/04/05 07:30:32;;;;;;;5.80;3.80;;;;;;;8.71;37.90;92093.88;2064868;69;20509;-69
2021/04/05 07:33:31;;;;;;;8.98;3.70;;;;;;;9.52;37.20;92094.16;2065032;69;20156;-69
2021/04/05 07:36:06;;;;;;;10.38;6.20;;;;;;;8.70;39.25;92091.69;2065073;69;20136;-69
2021/04/05 07:38:38;;;;;;;7.53;4.28;;;;;;;9.31;37.58;92075.47;2064986;69;20245;-69
2021/04/05 07:41:13;;;;;;;7.05;4.25;;;;;;;10.49;35.16;92081.75;2064906;69;20235;-70
2021/04/05 07:43:50;;;;;;;6.25;3.58;;;;;;;10.92;33.48;92067.72;2064725;69;20599;-72
2021/04/05 07:46:36;;;;;;;4.38;2.20;;;;;;;11.76;31.81;92082.97;2064999;69;20149;-69
2021/04/05 07:49:20;;;;;;;4.18;2.25;;;;;;;12.11;31.05;92068.38;2064966;69;20160;-69
2021/04/05 07:51:54;;;;;;;6.15;2.88;;;;;;;12.96;30.38;92065.69;2064935;69;20145;-73
2021/04/05 07:54:23;;;;;;;4.70;2.72;;;;;;;12.50;30.02;92055.22;2064992;69;20513;-72
2021/04/05 07:57:01;;;;;;;4.55;2.90;;;;;;;12.94;30.19;92054.31;2061651;69;20153;-71
2021/04/05 07:59:45;;;;;;;6.63;4.15;;;;;;;12.58;31.84;92052.75;2064862;69;20569;-72
2021/04/05 08:02:10;;;;;;;11.63;3.28;;;;;;;13.27;30.72;92043.63;2065040;69;20262;-70
2021/04/05 08:05:10;;;;;;;6.93;2.42;;;;;;;13.48;29.25;92043.81;2061617;69;20165;-72
2021/04/05 08:07:48;;;;;;;5.75;2.30;;;;;;;12.77;30.24;92031.66;2064901;69;20141;-68
2021/04/05 08:10:23;;;;;;;4.05;2.35;;;;;;;13.33;30.90;92019.19;2064893;69;20153;-68
2021/04/05 08:13:03;;;;;;;4.35;1.90;;;;;;;14.08;28.35;92023.41;2064920;69;20227;-69
2021/04/05 08:15:38;;;;;;;3.42;1.30;;;;;;;13.60;25.75;92023.75;2064716;69;20633;-70
2021/04/05 08:18:25;;;;;;;2.92;1.98;;;;;;;14.34;27.19;92015.16;2061557;69;20138;-70
2021/04/05 08:21:12;;;;;;;5.43;2.60;;;;;;;14.72;26.65;92010.16;2064872;69;20544;-71
2021/04/05 08:24:12;;;;;;;4.82;2.10;;;;;;;15.92;24.89;92016.88;2064828;69;20226;-71
2021/04/05 08:27:23;;;;;;;2.40;1.88;;;;;;;15.30;24.82;91995.75;2061505;69;20238;-72
2021/04/05 08:30:12;;;;;;;3.03;1.30;;;;;;;15.16;24.04;91979.72;2061827;69;20244;-73
2021/04/05 08:32:56;;;;;;;2.65;1.05;;;;;;;15.30;22.97;91970.22;2065171;69;20616;-71
2021/04/05 08:35:44;;;;;;;3.30;1.27;;;;;;;16.62;23.28;91965.59;2065387;69;20149;-73
2021/04/05 08:38:33;;;;;;;5.20;1.35;;;;;;;17.59;21.93;91954.50;2065502;69;20153;-73
2021/04/05 08:41:25;;;;;;;1.73;1.17;;;;;;;17.20;23.23;91951.47;2065340;69;20212;-73
2021/04/05 08:44:00;;;;;;;4.47;1.25;;;;;;;17.78;21.43;91950.72;2063792;69;20160;-72
2021/04/05 08:46:30;;;;;;;1.85;1.20;;;;;;;18.08;21.68;91956.34;2065350;69;20244;-73
2021/04/05 08:49:03;;;;;;;3.13;1.38;;;;;;;17.54;21.55;91948.00;2065602;69;20581;-73
2021/04/05 08:51:32;;;;;;;2.97;1.30;;;;;;;17.85;20.06;91943.75;2065326;69;20145;-73
2021/04/05 08:54:02;;;;;;;2.55;1.10;;;;;;;16.94;21.62;91939.44;2061897;69;20628;-72
2021/04/05 08:56:42;;;;;;;2.35;1.20;;;;;;;18.78;19.63;91944.94;2065547;69;20221;-73
2021/04/05 08:59:12;;;;;;;1.98;1.17;;;;;;;18.53;19.96;91923.78;2065202;69;20165;-72
2021/04/05 09:01:47;;;;;;;2.90;0.93;;;;;;;20.28;17.43;91928.72;2065313;69;20231;-73
2021/04/05 09:04:22;;;;;;;1.63;0.90;;;;;;;19.70;18.95;91932.22;2065326;69;20631;-73
2021/04/05 09:07:14;;;;;;;4.60;1.30;;;;;;;19.19;19.64;91917.09;2065293;69;20631;-72
2021/04/05 09:09:43;;;;;;;1.67;0.93;;;;;;;17.82;19.52;91910.22;2065325;69;20232;-72
2021/04/05 09:12:11;;;;;;;2.35;1.10;;;;;;;19.44;20.29;91906.09;2065467;69;20155;-72
2021/04/05 09:14:58;;;;;;;2.08;1.02;;;;;;;19.91;22.53;91895.38;2065170;69;20145;-75
2021/04/05 09:18:03;;;;;;;2.45;1.08;;;;;;;20.56;20.50;91891.19;2065320;69;20141;-74
2021/04/05 09:20:47;;;;;;;4.72;1.13;;;;;;;;;;2064674;69;20234;-71
2021/04/05 09:23:36;;;;;;;1.30;0.82;;;;;;;17.80;19.76;91878.88;2065257;69;20148;-70
2021/04/05 09:26:38;;;;;;;1.45;1.00;;;;;;;19.26;19.87;91881.56;2065368;69;20141;-72
2021/04/05 09:29:38;;;;;;;3.27;1.10;;;;;;;21.81;17.94;91869.38;2065159;69;20176;-73
2021/04/05 09:32:44;;;;;;;2.40;0.82;;;;;;;22.86;16.58;91861.91;2065371;69;20133;-73
2021/04/05 09:35:19;;;;;;;1.65;0.80;;;;;;;21.62;16.31;91857.06;2065407;69;20133;-73
2021/04/05 09:38:23;;;;;;;1.67;0.80;;;;;;;;;;2065274;69;20198;-72
2021/04/05 09:41:04;;;;;;;4.00;0.80;;;;;;;21.93;17.46;91835.06;2054477;69;20237;-73
2021/04/05 09:43:38;;;;;;;2.00;0.90;;;;;;;22.00;18.14;91832.94;2054177;69;20146;-76
2021/04/05 09:46:42;;;;;;;2.05;1.10;;;;;;;21.42;19.06;91828.31;2058986;69;20240;-75
2021/04/05 09:49:20;;;;;;;1.15;0.80;;;;;;;23.12;16.07;91821.81;2061461;69;20157;-73
2021/04/05 09:51:55;;;;;;;1.98;1.05;;;;;;;23.32;18.07;91824.69;2061842;69;20126;-76
2021/04/05 09:54:29;;;;;;;1.58;0.93;;;;;;;21.39;17.01;91809.69;2061886;69;20602;-75
2021/04/05 09:56:59;;;;;;;1.95;0.85;;;;;;;23.57;14.82;91793.78;2061877;69;20141;-76
2021/04/05 09:59:39;;;;;;;1.73;0.80;;;;;;;24.32;14.82;91792.09;2061780;69;20144;-72
2021/04/05 10:02:08;;;;;;;1.77;0.85;;;;;;;24.59;14.32;91786.97;2061902;69;20142;-73
2021/04/05 10:04:34;;;;;;;2.60;0.82;;;;;;;24.63;15.36;91778.31;2061845;69;20219;-74
2021/04/05 10:07:04;;;;;;;3.03;1.10;;;;;;;22.99;14.42;91763.66;2061953;69;20142;-73
2021/04/05 10:09:32;;;;;;;2.28;1.15;;;;;;;24.35;14.85;91771.25;2061849;69;20704;-74
2021/04/05 10:12:02;;;;;;;1.92;0.95;;;;;;;25.54;16.40;91767.53;2061788;69;20193;-73
2021/04/05 10:14:29;;;;;;;2.38;0.90;;;;;;;24.70;14.90;91753.09;2061731;69;20687;-75
2021/04/05 10:16:57;;;;;;;1.45;0.90;;;;;;;24.85;14.87;91752.25;2061797;69;20606;-73
2021/04/05 10:19:31;;;;;;;1.73;1.00;;;;;;;22.77;15.17;91743.56;2061989;69;20141;-74
2021/04/05 10:22:02;;;;;;;1.73;0.90;;;;;;;23.90;15.90;91732.66;2061969;69;20364;-73
2021/04/05 10:24:29;;;;;;;2.80;0.80;;;;;;;25.29;15.52;91736.09;2061895;69;20716;-73
2021/04/05 10:26:57;;;;;;;1.98;0.90;;;;;;;23.57;15.26;91721.97;2061839;69;20600;-74
2021/04/05 10:29:29;;;;;;;1.88;0.90;;;;;;;24.33;13.87;91716.63;2061699;69;20150;-74
2021/04/05 10:31:59;;;;;;;2.65;1.00;;;;;;;22.95;15.75;91703.41;2061748;69;20148;-72
2021/04/05 10:34:27;;;;;;;2.42;0.90;;;;;;;24.10;15.31;91700.94;2061785;69;20616;-72
2021/04/05 10:36:58;;;;;;;2.60;1.20;;;;;;;24.14;15.70;91691.56;2061757;69;20582;-76
2021/04/05 10:39:24;;;;;;;3.65;1.00;;;;;;;22.55;16.21;91690.50;2061787;69;20148;-73
2021/04/05 10:42:02;;;;;;;2.72;0.73;;;;;;;22.73;16.69;91680.47;2061693;69;20157;-75
2021/04/05 10:44:30;;;;;;;1.88;0.90;;;;;;;24.35;14.84;91664.84;2064518;69;20226;-75
2021/04/05 10:47:07;;;;;;;4.82;1.23;;;;;;;24.64;15.37;91664.66;2065070;69;20160;-74
2021/04/05 10:49:34;;;;;;;4.45;1.20;;;;;;;24.89;14.60;91656.53;2065064;69;20145;-74
2021/04/05 10:52:09;;;;;;;3.10;0.95;;;;;;;22.81;15.39;91649.59;2061739;69;20156;-76
2021/04/05 10:54:44;;;;;;;4.00;1.20;;;;;;;23.11;15.49;91635.97;2065069;69;20171;-70
2021/04/05 10:57:13;;;;;;;3.03;1.00;;;;;;;23.24;17.99;91628.75;2065058;69;20167;-72
2021/04/05 10:59:48;;;;;;;2.70;0.80;;;;;;;23.80;16.53;91624.22;2064950;69;20251;-72
2021/04/05 11:03:01;;;;;;;2.70;0.88;;;;;;;24.01;16.02;91616.19;2061717;69;20184;-73
2021/04/05 11:05:32;;;;;;;3.75;1.20;;;;;;;22.20;15.77;91603.03;2063283;69;20160;-73
2021/04/05 11:08:01;;;;;;;2.05;1.20;;;;;;;21.26;17.15;91600.66;2065019;69;20600;-72
2021/04/05 11:10:30;;;;;;;4.65;1.25;;;;;;;21.68;17.14;91593.66;2061652;69;20140;-73
2021/04/05 11:13:17;;;;;;;4.53;1.23;;;;;;;20.71;17.75;91591.81;2064971;69;20180;-72
2021/04/05 11:15:45;;;;;;;7.15;1.67;;;;;;;21.05;17.67;91573.38;2064758;69;20163;-74
2021/04/05 11:18:18;;;;;;;7.38;1.90;;;;;;;21.78;16.48;91578.63;2064993;69;20145;-72
2021/04/05 11:20:44;;;;;;;;;;;;;;;21.41;16.40;91580.69;2065172;69;20535;-71
2021/04/05 11:23:18;;;;;;;5.47;1.80;;;;;;;21.51;16.28;91572.84;2064987;69;20071;-72
2021/04/05 11:25:48;;;;;;;5.65;1.52;;;;;;;22.22;14.79;91574.38;2064120;69;20158;-75
2021/04/05 11:28:30;;;;;;;5.43;1.13;;;;;;;21.68;13.93;91547.13;2064496;69;20149;-71
2021/04/05 11:31:09;;;;;;;6.30;1.63;;;;;;;21.49;14.49;91544.22;2064315;69;20494;-74
2021/04/05 11:33:42;;;;;;;7.45;1.40;;;;;;;21.72;14.92;91544.25;2064669;69;20203;-73
2021/04/05 11:36:08;;;;;;;7.07;1.40;;;;;;;22.84;15.55;91541.31;2064420;69;20221;-73
2021/04/05 11:38:44;;;;;;;5.57;1.45;;;;;;;23.41;14.43;91537.50;2060996;69;20136;-71
2021/04/05 11:41:12;;;;;;;5.60;1.80;;;;;;;22.88;14.28;91532.69;2064427;69;20182;-73
2021/04/05 11:43:40;;;;;;;6.45;1.52;;;;;;;22.68;14.60;91535.59;2066426;69;20184;-71
2021/04/05 11:46:08;;;;;;;5.80;1.73;;;;;;;23.92;13.52;91528.59;2067614;69;20574;-70
2021/04/05 11:48:34;;;;;;;7.15;1.83;;;;;;;25.64;13.90;91534.03;2066936;69;20172;-72
2021/04/05 11:51:00;;;;;;;5.53;1.60;;;;;;;24.59;13.34;91530.91;2067366;69;20160;-71
2021/04/05 11:53:32;;;;;;;7.07;1.65;;;;;;;23.84;13.84;91535.13;2067261;69;20640;-74
2021/04/05 11:56:16;;;;;;;5.57;1.38;;;;;;;22.80;13.82;91526.97;2067488;69;20176;-74
2021/04/05 11:58:47;;;;;;;6.95;1.65;;;;;;;26.73;12.33;91518.66;2067302;69;20168;-72
2021/04/05 12:01:23;;;;;;;6.32;1.65;;;;;;;25.84;11.48;91518.63;2064150;69;20252;-73
2021/04/05 12:03:59;;;;;;;7.97;1.40;;;;;;;26.12;12.20;91516.81;2067551;69;20141;-74
2021/04/05 12:06:53;;;;;;;7.15;1.20;;;;;;;23.77;12.70;91502.13;2067795;69;20167;-73
2021/04/05 12:09:26;;;;;;;9.32;1.50;;;;;;;24.87;12.13;91497.53;2068848;69;20199;-73
2021/04/05 12:11:54;;;;;;;9.50;1.60;;;;;;;23.89;12.18;91489.81;2068788;69;20171;-72